Trajano — CUIC5 — position and weather

sailwx.info

Track history (hours):
 
Tides and Currents Weather Stations Pressure Air Temp Water Temp Dewpoint Dewpoint Depression Visibility Wind Speed Wind Dir Waves Ship Positions

Trajano

Last reported at 2018-Apr-22 02:15 UTC. Time now 2018-Apr-23 03:46 UTC.
Position N 37°57' W 008°52'.

Length 14 m.

Type: Fishing. MMSI: 263420690.

Date/timePositionNaut miles runAvg speedWind from/ knotsBaromVisibWave heightAir tempDewpointWater temp
2018-Apr-22 02:15N 37°57' W 008°52'1 3.1
2018-Apr-22 02:00N 37°56' W 008°52'4 7.0
2018-Apr-22 01:30N 37°53' W 008°54'1 0.0
2018-Apr-20 16:16N 37°54' W 008°55'0 0.6
2018-Apr-20 15:59N 37°54' W 008°55'1 1.2
2018-Apr-20 15:30N 37°55' W 008°55'0 0.8
2018-Apr-20 15:00N 37°55' W 008°55'1 1.0
2018-Apr-20 14:30N 37°54' W 008°54'1 1.5
2018-Apr-20 14:01N 37°53' W 008°54'1 2.9
2018-Apr-20 13:30N 37°55' W 008°53'2 0.3
2018-Apr-20 06:05N 37°57' W 008°52'0 2.0
2018-Apr-20 06:00N 37°57' W 008°52'3 5.5
2018-Apr-20 05:30N 37°58' W 008°56'3 6.7
2018-Apr-20 05:00N 38°01' W 008°58'3 6.5
2018-Apr-20 04:30N 38°04' W 008°57'3 6.9
2018-Apr-20 04:00N 38°07' W 008°56'0 0.7
2018-Apr-20 03:30N 38°08' W 008°56'1 1.6
2018-Apr-20 03:00N 38°07' W 008°56'2 4.9
2018-Apr-20 02:30N 38°04' W 008°56'4 8.3
2018-Apr-20 02:00N 38°00' W 008°55'4 8.2
2018-Apr-20 01:30N 37°56' W 008°55'2 3.9
2018-Apr-20 00:54N 37°54' W 008°54'2 4.6
2018-Apr-20 00:30N 37°55' W 008°53'  
2018-Apr-15 17:28N 37°57' W 008°52'4 1.4
2018-Apr-15 14:19N 38°00' W 008°56'0 0.9
2018-Apr-15 14:00N 38°01' W 008°56'0 0.9
2018-Apr-15 13:30N 38°01' W 008°56'6 0.7
2018-Apr-15 04:04N 38°06' W 009°01'0 0.4
2018-Apr-15 04:00N 38°06' W 009°01'3 1.4
2018-Apr-15 01:30N 38°03' W 009°01'2 3.8
2018-Apr-15 01:00N 38°01' W 009°02'0 0.2
2018-Apr-15 00:30N 38°01' W 009°01'2 3.8
2018-Apr-15 00:00N 38°00' W 008°59'46 1.7
2018-Apr-13 20:21N 38°42' W 009°25'1 3.5
2018-Apr-13 20:00N 38°41' W 009°25'3 6.7
2018-Apr-13 19:30N 38°37' W 009°25'7 3.3
2018-Apr-13 17:22N 38°33' W 009°17'2 5.6
2018-Apr-13 17:00N 38°31' W 009°19'4 6.9
2018-Apr-13 16:25N 38°28' W 009°16'  
Track history (hours):
 
Tides and Currents Weather Stations Pressure Air Temp Water Temp Dewpoint Dewpoint Depression Visibility Wind Speed Wind Dir Waves Ship Positions

Trajano

Last reported at 2018-Apr-22 02:15 UTC. Time now 2018-Apr-23 03:46 UTC.
Position N 37°57' W 008°52'.

Length 14 m.

Type: Fishing. MMSI: 263420690.

Date/timePositionNaut miles runAvg speedWind from/ knotsBaromVisibWave heightAir tempDewpointWater temp
2018-Apr-22 02:15N 37°57' W 008°52'1 3.1
2018-Apr-22 02:00N 37°56' W 008°52'4 7.0
2018-Apr-22 01:30N 37°53' W 008°54'1 0.0
2018-Apr-20 16:16N 37°54' W 008°55'0 0.6
2018-Apr-20 15:59N 37°54' W 008°55'1 1.2
2018-Apr-20 15:30N 37°55' W 008°55'0 0.8
2018-Apr-20 15:00N 37°55' W 008°55'1 1.0
2018-Apr-20 14:30N 37°54' W 008°54'1 1.5
2018-Apr-20 14:01N 37°53' W 008°54'1 2.9
2018-Apr-20 13:30N 37°55' W 008°53'2 0.3
2018-Apr-20 06:05N 37°57' W 008°52'0 2.0
2018-Apr-20 06:00N 37°57' W 008°52'3 5.5
2018-Apr-20 05:30N 37°58' W 008°56'3 6.7
2018-Apr-20 05:00N 38°01' W 008°58'3 6.5
2018-Apr-20 04:30N 38°04' W 008°57'3 6.9
2018-Apr-20 04:00N 38°07' W 008°56'0 0.7
2018-Apr-20 03:30N 38°08' W 008°56'1 1.6
2018-Apr-20 03:00N 38°07' W 008°56'2 4.9
2018-Apr-20 02:30N 38°04' W 008°56'4 8.3
2018-Apr-20 02:00N 38°00' W 008°55'4 8.2
2018-Apr-20 01:30N 37°56' W 008°55'2 3.9
2018-Apr-20 00:54N 37°54' W 008°54'2 4.6
2018-Apr-20 00:30N 37°55' W 008°53'  
2018-Apr-15 17:28N 37°57' W 008°52'4 1.4
2018-Apr-15 14:19N 38°00' W 008°56'0 0.9
2018-Apr-15 14:00N 38°01' W 008°56'0 0.9
2018-Apr-15 13:30N 38°01' W 008°56'6 0.7
2018-Apr-15 04:04N 38°06' W 009°01'0 0.4
2018-Apr-15 04:00N 38°06' W 009°01'3 1.4
2018-Apr-15 01:30N 38°03' W 009°01'2 3.8
2018-Apr-15 01:00N 38°01' W 009°02'0 0.2
2018-Apr-15 00:30N 38°01' W 009°01'2 3.8
2018-Apr-15 00:00N 38°00' W 008°59'46 1.7
2018-Apr-13 20:21N 38°42' W 009°25'1 3.5
2018-Apr-13 20:00N 38°41' W 009°25'3 6.7
2018-Apr-13 19:30N 38°37' W 009°25'7 3.3
2018-Apr-13 17:22N 38°33' W 009°17'2 5.6
2018-Apr-13 17:00N 38°31' W 009°19'4 6.9
2018-Apr-13 16:25N 38°28' W 009°16'  

Dump ship's entire track history